createdAt,value
2019-05-29T00:02:23.447Z,98182.85
2019-05-29T00:04:55.094Z,98171.56
2019-05-29T00:07:26.772Z,98173.00
2019-05-29T00:09:59.262Z,98173.00
2019-05-29T00:12:31.005Z,98163.86
2019-05-29T00:15:02.549Z,98162.31
2019-05-29T00:17:35.144Z,98175.82
2019-05-29T00:20:06.877Z,98190.27
2019-05-29T00:22:38.909Z,98193.80
2019-05-29T00:25:10.910Z,98196.38
2019-05-29T00:27:42.583Z,98196.38
2019-05-29T00:30:15.007Z,98194.43
2019-05-29T00:32:46.928Z,98188.16
2019-05-29T00:35:18.593Z,98195.77
2019-05-29T00:37:50.707Z,98194.33
2019-05-29T00:40:22.182Z,98208.97
2019-05-29T00:42:53.844Z,98220.05
2019-05-29T00:45:25.294Z,98218.25
2019-05-29T00:47:57.098Z,98228.96
2019-05-29T00:50:29.087Z,98240.10
2019-05-29T00:53:01.563Z,98243.56
2019-05-29T00:55:33.186Z,98235.75
2019-05-29T00:58:05.012Z,98232.20
2019-05-29T01:00:36.306Z,98238.95
2019-05-29T01:03:07.906Z,98238.95
2019-05-29T01:05:39.347Z,98248.83
2019-05-29T01:08:12.421Z,98251.77
2019-05-29T01:10:43.989Z,98257.02
2019-05-29T01:13:17.144Z,98259.58
2019-05-29T01:15:49.443Z,98248.86
2019-05-29T01:18:22.280Z,98248.86
2019-05-29T01:20:54.545Z,98259.97
2019-05-29T01:23:26.968Z,98259.88
2019-05-29T01:25:58.732Z,98258.66
2019-05-29T01:28:30.586Z,98248.23
2019-05-29T01:31:02.242Z,98248.23
2019-05-29T01:33:33.807Z,98265.83
2019-05-29T01:36:05.752Z,98274.41
2019-05-29T01:38:37.237Z,98274.41
2019-05-29T01:41:08.876Z,98272.95
2019-05-29T01:43:40.799Z,98276.20
2019-05-29T01:46:12.217Z,98276.20
2019-05-29T01:48:44.031Z,98275.55
2019-05-29T01:51:15.637Z,98276.77
2019-05-29T01:53:47.922Z,98275.84
2019-05-29T01:56:19.844Z,98275.84
2019-05-29T01:58:51.630Z,98290.05
2019-05-29T02:01:24.003Z,98302.31
2019-05-29T02:03:55.812Z,98310.88
2019-05-29T02:06:28.219Z,98308.01
2019-05-29T02:09:00.245Z,98308.05
2019-05-29T02:11:32.311Z,98308.05
2019-05-29T02:14:04.153Z,98317.77
2019-05-29T02:16:35.889Z,98319.78
2019-05-29T02:19:07.271Z,98314.09
2019-05-29T02:21:39.210Z,98314.75
2019-05-29T02:24:11.677Z,98328.34
2019-05-29T02:26:43.218Z,98333.09
2019-05-29T02:29:14.597Z,98333.09
2019-05-29T02:31:46.326Z,98334.01
2019-05-29T02:34:19.841Z,98337.28
2019-05-29T02:36:51.393Z,98337.28
2019-05-29T02:39:25.102Z,98338.55
2019-05-29T02:41:57.018Z,98342.28
2019-05-29T02:44:29.700Z,98346.11
2019-05-29T02:47:01.241Z,98353.64
2019-05-29T02:49:33.290Z,98353.64
2019-05-29T02:52:04.898Z,98357.14
2019-05-29T02:54:37.891Z,98342.07
2019-05-29T02:57:09.571Z,98343.73
2019-05-29T02:59:41.805Z,98343.73
2019-05-29T03:02:13.599Z,98365.05
2019-05-29T03:04:45.485Z,98360.97
2019-05-29T03:07:17.209Z,98349.22
2019-05-29T03:09:48.854Z,98349.22
2019-05-29T03:12:20.466Z,98379.91
2019-05-29T03:14:52.144Z,98382.06
2019-05-29T03:17:25.632Z,98382.06
2019-05-29T03:19:57.664Z,98370.64
2019-05-29T03:22:31.411Z,98363.05
2019-05-29T03:25:02.568Z,98376.91
2019-05-29T03:27:34.179Z,98407.36
2019-05-29T03:30:06.330Z,98407.36
2019-05-29T03:32:46.716Z,98394.52
2019-05-29T03:35:11.002Z,98385.92
2019-05-29T03:37:42.742Z,98378.31
2019-05-29T03:40:14.391Z,98378.31
2019-05-29T03:42:46.060Z,98374.14
2019-05-29T03:45:17.807Z,98377.52
2019-05-29T03:47:49.627Z,98383.14
2019-05-29T03:50:21.558Z,98377.94
2019-05-29T03:52:53.340Z,98379.81
2019-05-29T03:55:25.046Z,98379.81
2019-05-29T03:57:57.797Z,98389.62
2019-05-29T04:00:34.227Z,98372.63
2019-05-29T04:03:03.665Z,98376.72
2019-05-29T04:05:35.605Z,98380.27
2019-05-29T04:08:07.853Z,98376.08
2019-05-29T04:10:39.930Z,98376.08
2019-05-29T04:13:11.935Z,98369.13
2019-05-29T04:15:45.514Z,98381.32
2019-05-29T04:18:19.852Z,98378.53
2019-05-29T04:20:53.372Z,98381.37
2019-05-29T04:23:29.854Z,98381.37
2019-05-29T04:26:04.066Z,98373.74
2019-05-29T04:28:37.311Z,98373.74
2019-05-29T04:31:09.394Z,98376.90
2019-05-29T04:33:41.248Z,98375.61
2019-05-29T04:36:13.679Z,98373.75
2019-05-29T04:38:45.337Z,98371.84
2019-05-29T04:41:17.322Z,98371.30
2019-05-29T04:43:48.788Z,98369.96
2019-05-29T04:46:20.919Z,98366.98
2019-05-29T04:48:53.155Z,98369.24
2019-05-29T04:51:25.005Z,98362.48
2019-05-29T04:53:56.512Z,98357.84
2019-05-29T04:56:28.741Z,98360.59
2019-05-29T04:59:01.559Z,98359.61
2019-05-29T05:01:33.057Z,98352.64
2019-05-29T05:04:04.880Z,98352.72
2019-05-29T05:06:37.386Z,98351.03
2019-05-29T05:09:09.592Z,98361.13
2019-05-29T05:11:41.635Z,98361.20
2019-05-29T05:14:13.223Z,98361.20
2019-05-29T05:16:45.128Z,98362.13
2019-05-29T05:19:17.251Z,98363.02
2019-05-29T05:21:48.660Z,98357.02
2019-05-29T05:24:20.105Z,98361.85
2019-05-29T05:26:51.723Z,98360.84
2019-05-29T05:29:23.622Z,98360.84
2019-05-29T05:31:55.386Z,98358.66
2019-05-29T05:34:27.291Z,98351.61
2019-05-29T05:36:58.809Z,98351.61
2019-05-29T05:39:30.830Z,98354.79
2019-05-29T05:42:02.421Z,98351.03
2019-05-29T05:44:34.881Z,98355.14
2019-05-29T05:47:06.798Z,98351.92
2019-05-29T05:49:39.528Z,98351.92
2019-05-29T05:52:13.746Z,98342.42
2019-05-29T05:54:45.069Z,98339.49
2019-05-29T05:57:16.859Z,98339.49
2019-05-29T05:59:48.553Z,98335.31
2019-05-29T06:02:21.203Z,98327.89
2019-05-29T06:04:53.095Z,98327.08
2019-05-29T06:07:24.895Z,98323.02
2019-05-29T06:09:56.791Z,98323.02
2019-05-29T06:12:28.619Z,98325.78
2019-05-29T06:15:00.366Z,98325.16
2019-05-29T06:17:32.335Z,98322.67
2019-05-29T06:20:04.109Z,98322.02
2019-05-29T06:22:36.918Z,98318.31
2019-05-29T06:25:09.260Z,98307.82
2019-05-29T06:27:43.208Z,98307.82
2019-05-29T06:30:15.285Z,98301.87
2019-05-29T06:32:46.615Z,98306.25
2019-05-29T06:35:18.699Z,98305.41
2019-05-29T06:37:50.102Z,98297.16
2019-05-29T06:40:33.946Z,98302.46
2019-05-29T06:43:06.616Z,98302.46
2019-05-29T06:45:39.977Z,98302.58
2019-05-29T06:48:15.305Z,98294.23
2019-05-29T06:50:47.636Z,98288.02
2019-05-29T06:53:19.741Z,98293.06
2019-05-29T06:55:53.840Z,98276.63
2019-05-29T06:58:25.620Z,98276.63
2019-05-29T07:00:57.847Z,98277.46
2019-05-29T07:03:29.838Z,98277.46
2019-05-29T07:06:01.431Z,98273.13
2019-05-29T07:08:38.846Z,98273.41
2019-05-29T07:11:07.189Z,98269.52
2019-05-29T07:13:41.769Z,98261.04
2019-05-29T07:16:12.321Z,98267.93
2019-05-29T07:19:20.522Z,98243.14
2019-05-29T07:21:18.875Z,98247.53
2019-05-29T07:23:50.424Z,98247.53
2019-05-29T07:26:22.381Z,98238.65
2019-05-29T07:29:06.639Z,98227.41
2019-05-29T07:31:28.439Z,98227.41
2019-05-29T07:34:00.773Z,98227.47
2019-05-29T07:36:32.914Z,98225.45
2019-05-29T07:39:06.663Z,98225.45
2019-05-29T07:41:39.466Z,98217.16
2019-05-29T07:44:11.478Z,98217.16
2019-05-29T07:46:45.302Z,98211.52
2019-05-29T07:49:17.757Z,98211.52
2019-05-29T07:51:49.720Z,98208.73
2019-05-29T07:54:21.495Z,98205.62
2019-05-29T07:56:53.593Z,98201.94
2019-05-29T07:59:28.681Z,98194.94
2019-05-29T08:02:02.713Z,98200.59
2019-05-29T08:04:34.598Z,98197.20
2019-05-29T08:07:06.387Z,98188.50
2019-05-29T08:09:39.241Z,98187.41
2019-05-29T08:12:11.392Z,98187.41
2019-05-29T08:14:43.753Z,98181.85
2019-05-29T08:17:17.159Z,98171.62
2019-05-29T08:20:03.154Z,98171.62
2019-05-29T08:22:33.763Z,98167.48
2019-05-29T08:24:55.931Z,98160.04
2019-05-29T08:27:27.343Z,98156.33
2019-05-29T08:29:59.413Z,98153.15
2019-05-29T08:32:30.886Z,98144.80
2019-05-29T08:35:02.552Z,98149.19
2019-05-29T08:37:34.154Z,98142.44
2019-05-29T08:40:06.556Z,98130.98
2019-05-29T08:42:38.484Z,98116.14
2019-05-29T08:45:12.268Z,98112.33
2019-05-29T08:47:45.519Z,98105.18
2019-05-29T08:50:19.179Z,98105.18
2019-05-29T08:52:52.194Z,98102.20
2019-05-29T08:55:23.993Z,98097.57
2019-05-29T08:57:55.871Z,98086.79
2019-05-29T09:00:27.779Z,98095.45
2019-05-29T09:02:59.756Z,98086.88
2019-05-29T09:05:31.233Z,98081.13
2019-05-29T09:08:03.009Z,98068.30
2019-05-29T09:10:34.759Z,98068.30
2019-05-29T09:13:06.635Z,98065.47
2019-05-29T09:15:38.374Z,98039.28
2019-05-29T09:18:10.679Z,98039.28
2019-05-29T09:21:01.048Z,98056.05
2019-05-29T09:23:16.908Z,98049.05
2019-05-29T09:25:48.599Z,98049.05
2019-05-29T09:28:20.041Z,98039.93
2019-05-29T09:30:50.831Z,98043.05
2019-05-29T09:33:23.541Z,98031.81
2019-05-29T09:35:56.721Z,98031.81
2019-05-29T09:38:28.577Z,98023.55
2019-05-29T09:41:01.166Z,98023.55
2019-05-29T09:43:33.386Z,98025.80
2019-05-29T09:46:06.284Z,98020.28
2019-05-29T09:48:49.103Z,98020.28
2019-05-29T09:51:21.186Z,98017.72
2019-05-29T09:53:46.826Z,98016.15
2019-05-29T09:56:19.286Z,98016.15
2019-05-29T09:58:53.703Z,98012.72
2019-05-29T10:01:25.911Z,98000.19
2019-05-29T10:04:00.013Z,98006.77
2019-05-29T10:06:32.113Z,97991.29
2019-05-29T10:09:04.705Z,98001.86
2019-05-29T10:11:36.677Z,98002.56
2019-05-29T10:14:08.863Z,97994.39
2019-05-29T10:16:40.552Z,97994.39
2019-05-29T10:19:13.792Z,97992.86
2019-05-29T10:21:45.572Z,97992.86
2019-05-29T10:24:17.347Z,97978.55
2019-05-29T10:26:49.395Z,97978.55
2019-05-29T10:29:21.115Z,97981.52
2019-05-29T10:31:53.408Z,97982.03
2019-05-29T10:34:25.629Z,97981.38
2019-05-29T10:36:58.094Z,97970.75
2019-05-29T10:39:30.280Z,97970.75
2019-05-29T10:42:03.489Z,97959.73
2019-05-29T10:44:35.813Z,97959.73
2019-05-29T10:47:07.883Z,97959.28
2019-05-29T10:49:43.437Z,97951.95
2019-05-29T10:52:17.541Z,97947.05
2019-05-29T10:54:50.188Z,97945.62
2019-05-29T10:57:24.731Z,97946.19
2019-05-29T10:59:56.594Z,97947.05
2019-05-29T11:02:28.147Z,97944.34
2019-05-29T11:05:01.093Z,97941.63
2019-05-29T11:07:36.503Z,97941.63
2019-05-29T11:10:08.990Z,97938.08
2019-05-29T11:12:41.096Z,97934.56
2019-05-29T11:15:21.418Z,97926.28
2019-05-29T11:17:47.176Z,97925.51
2019-05-29T11:20:20.711Z,97924.72
2019-05-29T11:22:53.571Z,97924.72
2019-05-29T11:25:27.672Z,97922.23
2019-05-29T11:27:58.938Z,97923.71
2019-05-29T11:30:33.366Z,97924.67
2019-05-29T11:33:04.363Z,97931.73
2019-05-29T11:35:36.110Z,97924.48
2019-05-29T11:38:07.483Z,97924.66
2019-05-29T11:40:39.089Z,97918.67
2019-05-29T11:43:10.733Z,97924.41
2019-05-29T11:45:42.515Z,97920.03
2019-05-29T11:48:14.001Z,97920.70
2019-05-29T11:50:45.708Z,97922.38
2019-05-29T11:53:17.627Z,97922.38
2019-05-29T11:55:49.396Z,97922.06
2019-05-29T11:58:30.566Z,97922.06
2019-05-29T12:00:55.044Z,97923.87
2019-05-29T12:03:28.413Z,97916.61
2019-05-29T12:05:59.928Z,97919.37
2019-05-29T12:08:31.744Z,97919.37
2019-05-29T12:11:07.015Z,97917.79
2019-05-29T12:13:38.307Z,97927.25
2019-05-29T12:16:10.054Z,97927.25
2019-05-29T12:18:42.392Z,97917.76
2019-05-29T12:21:14.071Z,97917.52
2019-05-29T12:23:45.827Z,97915.08
2019-05-29T12:26:46.714Z,97915.08
2019-05-29T12:29:23.549Z,97916.34
2019-05-29T12:31:55.267Z,97916.34
2019-05-29T12:34:34.056Z,97916.94
2019-05-29T12:37:06.219Z,97916.94
2019-05-29T12:39:38.182Z,97921.84
2019-05-29T12:42:09.662Z,97915.23
2019-05-29T12:44:41.238Z,97915.00
2019-05-29T12:47:12.936Z,97915.00
2019-05-29T12:49:44.367Z,97920.20
2019-05-29T12:52:16.493Z,97920.15
2019-05-29T12:54:48.551Z,97922.09
2019-05-29T12:57:23.442Z,97922.09
2019-05-29T12:59:54.029Z,97926.08
2019-05-29T13:02:25.959Z,97930.39
2019-05-29T13:05:09.423Z,97929.80
2019-05-29T13:07:30.997Z,97927.22
2019-05-29T13:10:02.812Z,97932.00
2019-05-29T13:12:34.466Z,97932.00
2019-05-29T13:15:07.089Z,97942.51
2019-05-29T13:17:38.697Z,97943.08
2019-05-29T13:20:20.973Z,97943.08
2019-05-29T13:22:44.756Z,97941.97
2019-05-29T13:25:17.811Z,97941.97
2019-05-29T13:27:50.191Z,97939.72
2019-05-29T13:30:40.190Z,97948.33
2019-05-29T13:33:12.080Z,97948.33
2019-05-29T13:35:43.542Z,97950.45
2019-05-29T13:38:15.283Z,97944.19
2019-05-29T13:40:47.286Z,97946.97
2019-05-29T13:43:19.091Z,97947.39
2019-05-29T13:45:50.693Z,97950.31
2019-05-29T13:48:23.523Z,97948.72
2019-05-29T13:50:55.285Z,97953.48
2019-05-29T13:53:26.988Z,97954.04
2019-05-29T13:55:59.823Z,97954.04
2019-05-29T13:58:31.251Z,97955.84
2019-05-29T14:01:04.180Z,97959.24
2019-05-29T14:03:41.667Z,97957.75
2019-05-29T14:06:13.215Z,97962.69
2019-05-29T14:08:44.467Z,97965.64
2019-05-29T14:11:16.237Z,97970.49
2019-05-29T14:13:47.486Z,97972.19
2019-05-29T14:16:19.288Z,97970.48
2019-05-29T14:18:50.875Z,97982.95
2019-05-29T14:21:22.725Z,97976.77
2019-05-29T14:23:54.102Z,97981.47
2019-05-29T14:26:26.548Z,97981.71
2019-05-29T14:28:57.999Z,97981.02
2019-05-29T14:31:29.783Z,97987.42
2019-05-29T14:34:01.475Z,97990.73
2019-05-29T14:36:34.153Z,97992.48
2019-05-29T14:39:07.597Z,97999.13
2019-05-29T14:41:39.289Z,97994.91
2019-05-29T14:44:10.583Z,97992.28
2019-05-29T14:46:43.554Z,97992.02
2019-05-29T14:49:14.986Z,98000.39
2019-05-29T14:51:46.924Z,98003.52
2019-05-29T14:54:18.621Z,98003.52
2019-05-29T14:56:51.003Z,98002.92
2019-05-29T14:59:22.682Z,98007.39
2019-05-29T15:01:55.065Z,98003.09
2019-05-29T15:04:26.239Z,98011.89
2019-05-29T15:06:57.344Z,98011.04
2019-05-29T15:09:28.493Z,98011.53
2019-05-29T15:11:59.918Z,98012.65
2019-05-29T15:14:31.771Z,98025.28
2019-05-29T15:17:04.904Z,98025.28
2019-05-29T15:19:36.345Z,98022.02
2019-05-29T15:22:09.211Z,98027.34
2019-05-29T15:24:58.858Z,98027.34
2019-05-29T15:27:14.176Z,98035.88
2019-05-29T15:29:45.588Z,98031.89
2019-05-29T15:32:17.075Z,98031.89
2019-05-29T15:34:48.846Z,98032.23
2019-05-29T15:37:20.664Z,98039.42
2019-05-29T15:39:52.012Z,98040.70
2019-05-29T15:42:24.018Z,98042.75
2019-05-29T15:44:55.894Z,98042.75
2019-05-29T15:47:27.601Z,98045.44
2019-05-29T15:49:59.258Z,98045.44
2019-05-29T15:52:31.608Z,98049.59
2019-05-29T15:55:20.104Z,98050.47
2019-05-29T15:57:36.940Z,98048.80
2019-05-29T16:00:09.189Z,98052.47
2019-05-29T16:02:42.979Z,98052.47
2019-05-29T16:05:15.441Z,98050.05
2019-05-29T16:07:47.667Z,98053.23
2019-05-29T16:10:21.163Z,98053.23
2019-05-29T16:12:54.211Z,98048.53
2019-05-29T16:15:26.540Z,98062.17
2019-05-29T16:17:58.151Z,98056.95
2019-05-29T16:20:30.020Z,98056.95
2019-05-29T16:23:01.718Z,98066.28
2019-05-29T16:25:39.992Z,98054.61
2019-05-29T16:28:07.399Z,98055.08
2019-05-29T16:30:38.674Z,98055.08
2019-05-29T16:33:10.886Z,98055.75
2019-05-29T16:35:42.180Z,98058.55
2019-05-29T16:38:14.175Z,98058.55
2019-05-29T16:40:47.817Z,98054.09
2019-05-29T16:43:20.146Z,98054.09
2019-05-29T16:45:52.042Z,98058.45
2019-05-29T16:48:24.039Z,98058.45
2019-05-29T16:50:55.448Z,98060.75
2019-05-29T16:53:26.878Z,98060.75
2019-05-29T16:55:58.808Z,98058.06
2019-05-29T16:58:30.761Z,98056.83
2019-05-29T17:01:02.417Z,98059.31
2019-05-29T17:03:34.669Z,98059.31
2019-05-29T17:06:07.764Z,98058.34
2019-05-29T17:08:39.433Z,98058.34
2019-05-29T17:11:11.018Z,98061.22
2019-05-29T17:13:42.776Z,98067.80
2019-05-29T17:16:14.649Z,98062.14
2019-05-29T17:18:46.925Z,98068.59
2019-05-29T17:21:18.642Z,98059.52
2019-05-29T17:23:50.385Z,98065.81
2019-05-29T17:26:22.754Z,98068.05
2019-05-29T17:28:54.925Z,98068.05
2019-05-29T17:31:27.474Z,98069.12
2019-05-29T17:33:59.287Z,98067.00
2019-05-29T17:36:30.776Z,98070.48
2019-05-29T17:39:03.520Z,98071.00
2019-05-29T17:41:36.154Z,98067.41
2019-05-29T17:44:08.035Z,98068.83
2019-05-29T17:46:39.545Z,98061.94
2019-05-29T17:49:11.323Z,98062.71
2019-05-29T17:51:43.002Z,98062.63
2019-05-29T17:54:15.705Z,98062.86
2019-05-29T17:56:47.281Z,98062.86
2019-05-29T17:59:20.115Z,98064.20
2019-05-29T18:01:51.815Z,98058.61
2019-05-29T18:04:24.821Z,98056.66
2019-05-29T18:06:56.716Z,98056.52
2019-05-29T18:09:29.337Z,98058.52
2019-05-29T18:12:01.147Z,98060.91
2019-05-29T18:14:34.416Z,98056.97
2019-05-29T18:17:06.110Z,98060.09
2019-05-29T18:19:38.129Z,98055.09
2019-05-29T18:22:09.581Z,98056.61
2019-05-29T18:24:41.157Z,98055.18
2019-05-29T18:27:12.802Z,98055.18
2019-05-29T18:29:44.858Z,98054.82
2019-05-29T18:32:16.748Z,98047.72
2019-05-29T18:34:52.362Z,98053.13
2019-05-29T18:37:22.047Z,98054.35
2019-05-29T18:39:53.420Z,98054.35
2019-05-29T18:42:25.656Z,98049.59
2019-05-29T18:44:57.495Z,98051.66
2019-05-29T18:47:30.250Z,98051.66
2019-05-29T18:50:02.048Z,98048.54
2019-05-29T18:52:33.526Z,98045.86
2019-05-29T18:55:05.528Z,98038.09
2019-05-29T18:57:37.273Z,98041.68
2019-05-29T19:00:09.510Z,98041.68
2019-05-29T19:02:40.982Z,98040.19
2019-05-29T19:05:13.384Z,98040.19
2019-05-29T19:07:44.715Z,98042.27
2019-05-29T19:10:16.474Z,98040.53
2019-05-29T19:12:48.142Z,98036.59
2019-05-29T19:15:20.084Z,98036.59
2019-05-29T19:17:51.941Z,98032.94
2019-05-29T19:20:24.318Z,98034.02
2019-05-29T19:22:55.866Z,98027.08
2019-05-29T19:25:28.907Z,98033.57
2019-05-29T19:28:00.637Z,98032.24
2019-05-29T19:30:33.022Z,98030.59
2019-05-29T19:33:04.746Z,98021.72
2019-05-29T19:35:37.851Z,98024.70
2019-05-29T19:38:11.139Z,98020.29
2019-05-29T19:40:42.603Z,98013.95
2019-05-29T19:43:14.389Z,98013.95
2019-05-29T19:45:47.833Z,98012.23
2019-05-29T19:48:19.603Z,98005.81
2019-05-29T19:50:51.648Z,98010.30
2019-05-29T19:53:25.213Z,98005.66
2019-05-29T19:55:56.759Z,98015.98
2019-05-29T19:58:30.234Z,98015.36
2019-05-29T20:01:02.810Z,98008.05
2019-05-29T20:03:34.745Z,98008.05
2019-05-29T20:06:06.770Z,98009.69
2019-05-29T20:08:39.693Z,98010.33
2019-05-29T20:11:11.774Z,97999.72
2019-05-29T20:13:43.483Z,97995.39
2019-05-29T20:16:15.557Z,97995.39
2019-05-29T20:18:46.961Z,97993.69
2019-05-29T20:21:18.680Z,97994.56
2019-05-29T20:23:50.118Z,98003.44
2019-05-29T20:26:21.752Z,98003.44
2019-05-29T20:28:53.393Z,97997.61
2019-05-29T20:31:25.444Z,97993.92
2019-05-29T20:33:56.931Z,98005.00
2019-05-29T20:36:28.721Z,98006.80
2019-05-29T20:39:00.311Z,98006.66
2019-05-29T20:41:34.099Z,98007.17
2019-05-29T20:44:05.335Z,98013.58
2019-05-29T20:46:38.436Z,98016.65
2019-05-29T20:49:10.541Z,98016.65
2019-05-29T20:51:42.294Z,98030.07
2019-05-29T20:54:14.061Z,98030.07
2019-05-29T20:56:49.020Z,98030.06
2019-05-29T20:59:20.565Z,98030.06
2019-05-29T21:01:52.446Z,98029.66
2019-05-29T21:04:23.861Z,98029.36
2019-05-29T21:06:55.683Z,98021.86
2019-05-29T21:09:27.145Z,98028.78
2019-05-29T21:11:58.545Z,98026.77
2019-05-29T21:14:30.317Z,98025.81
2019-05-29T21:17:02.227Z,98022.41
2019-05-29T21:19:33.983Z,98015.15
2019-05-29T21:22:05.802Z,98016.95
2019-05-29T21:24:38.504Z,98015.25
2019-05-29T21:27:10.410Z,98012.08
2019-05-29T21:29:45.423Z,98012.93
2019-05-29T21:32:17.097Z,98020.34
2019-05-29T21:34:48.805Z,98015.81
2019-05-29T21:37:20.510Z,98019.17
2019-05-29T21:39:52.156Z,98007.41
2019-05-29T21:42:24.247Z,98007.41
2019-05-29T21:44:55.947Z,98010.92
2019-05-29T21:47:27.519Z,98009.80
2019-05-29T21:49:59.339Z,98002.91
2019-05-29T21:52:31.274Z,98002.91
2019-05-29T21:55:03.204Z,98006.74
2019-05-29T21:57:34.776Z,98012.98
2019-05-29T22:00:11.181Z,98012.98
2019-05-29T22:02:44.751Z,98014.31
2019-05-29T22:05:16.387Z,98010.96
2019-05-29T22:07:48.946Z,98010.96
2019-05-29T22:10:20.633Z,98012.77
2019-05-29T22:12:54.117Z,98014.38
2019-05-29T22:15:26.337Z,98010.49
2019-05-29T22:17:59.212Z,98014.00
2019-05-29T22:20:31.066Z,98012.56
2019-05-29T22:23:03.064Z,98010.38
2019-05-29T22:25:34.884Z,98013.02
2019-05-29T22:28:06.637Z,98014.39
2019-05-29T22:30:39.261Z,98016.86
2019-05-29T22:33:10.816Z,98023.83
2019-05-29T22:35:42.352Z,98023.83
2019-05-29T22:38:14.055Z,98019.74
2019-05-29T22:40:45.575Z,98025.20
2019-05-29T22:43:17.684Z,98030.18
2019-05-29T22:45:49.599Z,98030.18
2019-05-29T22:48:21.046Z,98026.27
2019-05-29T22:50:53.713Z,98026.87
2019-05-29T22:53:25.872Z,98030.08
2019-05-29T22:55:57.874Z,98027.53
2019-05-29T22:58:29.864Z,98023.31
2019-05-29T23:01:02.258Z,98022.97
2019-05-29T23:03:35.317Z,98022.97
2019-05-29T23:06:06.831Z,98025.31
2019-05-29T23:08:40.777Z,98028.13
2019-05-29T23:11:12.229Z,98028.13
2019-05-29T23:13:44.788Z,98028.74
2019-05-29T23:16:17.372Z,98020.02
2019-05-29T23:18:48.940Z,98020.02
2019-05-29T23:21:20.644Z,98027.13
2019-05-29T23:23:53.319Z,98031.41
2019-05-29T23:26:24.824Z,98031.89
2019-05-29T23:28:56.859Z,98031.30
2019-05-29T23:31:28.290Z,98029.44
2019-05-29T23:34:01.051Z,98030.29
2019-05-29T23:36:32.472Z,98040.80
2019-05-29T23:39:05.472Z,98041.73
2019-05-29T23:41:36.917Z,98049.84
2019-05-29T23:44:08.551Z,98055.83
2019-05-29T23:46:39.998Z,98056.23
2019-05-29T23:49:11.509Z,98058.51
2019-05-29T23:51:42.905Z,98065.77
2019-05-29T23:54:14.689Z,98065.77
2019-05-29T23:56:46.367Z,98064.22
2019-05-29T23:59:18.010Z,98059.58
